createdAt,value
2018-03-06T00:00:21.839Z,78.90
2018-03-06T00:02:50.291Z,79.10
2018-03-06T00:05:18.560Z,79.40
2018-03-06T00:07:49.908Z,79.90
2018-03-06T00:10:18.544Z,79.90
2018-03-06T00:12:46.818Z,80.20
2018-03-06T00:15:15.110Z,80.10
2018-03-06T00:17:43.439Z,79.80
2018-03-06T00:20:11.939Z,79.80
2018-03-06T00:22:40.214Z,79.90
2018-03-06T00:25:08.729Z,80.70
2018-03-06T00:27:37.001Z,80.90
2018-03-06T00:30:05.285Z,80.00
2018-03-06T00:32:34.475Z,80.30
2018-03-06T00:35:02.743Z,79.70
2018-03-06T00:37:31.033Z,80.30
2018-03-06T00:40:00.100Z,80.40
2018-03-06T00:42:28.380Z,80.40
2018-03-06T00:45:00.235Z,80.90
2018-03-06T00:47:28.575Z,81.00
2018-03-06T00:49:57.644Z,81.20
2018-03-06T00:52:26.685Z,80.20
2018-03-06T00:54:54.996Z,80.20
2018-03-06T00:57:23.306Z,80.20
2018-03-06T00:59:52.350Z,80.30
2018-03-06T01:02:20.679Z,80.30
2018-03-06T01:04:49.708Z,80.70
2018-03-06T01:07:17.974Z,80.10
2018-03-06T01:09:48.026Z,80.00
2018-03-06T01:12:16.318Z,80.50
2018-03-06T01:14:45.366Z,81.90
2018-03-06T01:17:14.025Z,81.90
2018-03-06T01:19:43.062Z,81.10
2018-03-06T01:22:12.859Z,81.00
2018-03-06T01:24:41.492Z,80.70
2018-03-06T01:27:10.549Z,80.90
2018-03-06T01:29:38.850Z,80.80
2018-03-06T01:32:07.439Z,81.20
2018-03-06T01:34:39.882Z,80.80
2018-03-06T01:37:08.420Z,81.30
2018-03-06T01:39:37.472Z,81.10
2018-03-06T01:42:05.776Z,81.00
2018-03-06T01:44:34.872Z,81.10
2018-03-06T01:47:04.942Z,81.50
2018-03-06T01:49:33.257Z,81.50
2018-03-06T01:52:01.567Z,81.50
2018-03-06T01:54:29.854Z,83.00
2018-03-06T01:56:58.131Z,81.40
2018-03-06T01:59:28.802Z,81.40
2018-03-06T02:01:57.066Z,81.90
2018-03-06T02:04:25.351Z,81.50
2018-03-06T02:06:53.874Z,81.60
2018-03-06T02:09:22.925Z,82.10
2018-03-06T02:11:51.195Z,82.00
2018-03-06T02:14:19.807Z,81.80
2018-03-06T02:16:48.107Z,82.10
2018-03-06T02:19:17.881Z,82.10
2018-03-06T02:21:46.287Z,82.00
2018-03-06T02:24:15.415Z,81.60
2018-03-06T02:26:43.708Z,81.60
2018-03-06T02:29:12.040Z,81.50
2018-03-06T02:31:40.325Z,81.50
2018-03-06T02:34:08.627Z,81.70
2018-03-06T02:36:38.725Z,81.70
2018-03-06T02:39:07.797Z,82.30
2018-03-06T02:41:36.101Z,82.80
2018-03-06T02:44:05.286Z,81.80
2018-03-06T02:46:34.354Z,81.80
2018-03-06T02:49:06.070Z,81.80
2018-03-06T02:51:34.349Z,82.00
2018-03-06T02:54:02.632Z,82.20
2018-03-06T02:56:31.044Z,82.30
2018-03-06T02:58:59.339Z,81.90
2018-03-06T03:01:30.747Z,82.10
2018-03-06T03:03:59.066Z,82.00
2018-03-06T03:06:28.859Z,82.40
2018-03-06T03:08:57.181Z,82.40
2018-03-06T03:11:26.357Z,82.20
2018-03-06T03:13:56.534Z,83.00
2018-03-06T03:16:24.812Z,83.00
2018-03-06T03:18:53.260Z,82.40
2018-03-06T03:21:21.554Z,82.40
2018-03-06T03:23:49.861Z,82.40
2018-03-06T03:26:19.782Z,82.30
2018-03-06T03:28:48.062Z,82.50
2018-03-06T03:31:16.338Z,82.30
2018-03-06T03:33:44.662Z,83.30
2018-03-06T03:36:12.936Z,82.60
2018-03-06T03:38:43.197Z,82.60
2018-03-06T03:41:11.508Z,82.60
2018-03-06T03:43:40.539Z,82.30
2018-03-06T03:46:08.810Z,82.30
2018-03-06T03:48:37.884Z,83.00
2018-03-06T03:51:09.507Z,82.60
2018-03-06T03:53:37.805Z,82.50
2018-03-06T03:56:06.889Z,83.20
2018-03-06T03:58:36.673Z,83.10
2018-03-06T04:01:04.940Z,83.10
2018-03-06T04:03:34.105Z,83.20
2018-03-06T04:06:02.355Z,83.10
2018-03-06T04:08:31.403Z,82.80
2018-03-06T04:10:59.762Z,82.80
2018-03-06T04:13:28.035Z,82.80
2018-03-06T04:15:57.797Z,83.00
2018-03-06T04:18:26.489Z,82.80
2018-03-06T04:20:56.269Z,82.70
2018-03-06T04:23:24.542Z,82.70
2018-03-06T04:25:53.377Z,83.10
2018-03-06T04:28:24.925Z,83.00
2018-03-06T04:30:53.259Z,82.90
2018-03-06T04:33:21.573Z,82.80
2018-03-06T04:35:49.870Z,84.00
2018-03-06T04:38:18.925Z,83.80
2018-03-06T04:40:47.433Z,83.80
2018-03-06T04:43:15.737Z,83.80
2018-03-06T04:45:44.791Z,83.60
2018-03-06T04:48:13.105Z,83.60
2018-03-06T04:50:42.162Z,83.30
2018-03-06T04:53:13.818Z,83.20
2018-03-06T04:55:42.138Z,83.30
2018-03-06T04:58:10.421Z,82.50
2018-03-06T05:00:38.700Z,83.40
2018-03-06T05:03:07.546Z,84.10
2018-03-06T05:05:35.904Z,83.80
2018-03-06T05:08:04.172Z,82.40
2018-03-06T05:10:32.483Z,82.50
2018-03-06T05:13:00.773Z,83.20
2018-03-06T05:15:29.822Z,83.10
2018-03-06T05:17:59.692Z,83.00
2018-03-06T05:20:28.726Z,82.90
2018-03-06T05:22:57.377Z,82.90
2018-03-06T05:25:26.449Z,82.50
2018-03-06T05:27:54.731Z,82.50
2018-03-06T05:30:25.304Z,82.50
2018-03-06T05:32:53.934Z,82.50
2018-03-06T05:35:22.201Z,82.70
2018-03-06T05:37:51.387Z,82.70
2018-03-06T05:40:20.086Z,82.80
2018-03-06T05:42:50.734Z,82.90
2018-03-06T05:45:19.775Z,83.10
2018-03-06T05:47:48.196Z,83.10
2018-03-06T05:50:17.260Z,82.70
2018-03-06T05:52:45.561Z,82.60
2018-03-06T05:55:14.563Z,82.80
2018-03-06T05:57:43.607Z,82.70
2018-03-06T06:00:11.908Z,82.70
2018-03-06T06:02:40.223Z,83.80
2018-03-06T06:05:09.310Z,83.60
2018-03-06T06:07:39.247Z,82.70
2018-03-06T06:10:07.697Z,82.70
2018-03-06T06:12:35.997Z,83.20
2018-03-06T06:15:05.048Z,82.40
2018-03-06T06:17:33.438Z,82.30
2018-03-06T06:20:01.791Z,82.50
2018-03-06T06:22:30.059Z,83.60
2018-03-06T06:24:58.590Z,82.50
2018-03-06T06:27:26.849Z,82.40
2018-03-06T06:29:55.125Z,82.20
2018-03-06T06:32:25.151Z,82.10
2018-03-06T06:34:53.436Z,82.10
2018-03-06T06:37:21.700Z,82.50
2018-03-06T06:39:50.010Z,82.40
2018-03-06T06:42:19.046Z,82.10
2018-03-06T06:44:47.415Z,82.10
2018-03-06T06:47:15.760Z,81.60
2018-03-06T06:49:44.796Z,81.40
2018-03-06T06:52:13.067Z,81.30
2018-03-06T06:54:41.449Z,81.30
2018-03-06T06:57:12.730Z,81.10
2018-03-06T06:59:41.005Z,81.20
2018-03-06T07:02:09.323Z,81.00
2018-03-06T07:04:37.603Z,81.20
2018-03-06T07:07:05.912Z,80.70
2018-03-06T07:09:35.887Z,81.10
2018-03-06T07:12:04.169Z,80.80
2018-03-06T07:14:32.494Z,80.50
2018-03-06T07:17:00.868Z,80.80
2018-03-06T07:19:32.490Z,81.10
2018-03-06T07:22:00.780Z,81.30
2018-03-06T07:24:29.269Z,81.60
2018-03-06T07:26:57.584Z,80.40
2018-03-06T07:29:25.870Z,79.80
2018-03-06T07:31:54.534Z,79.40
2018-03-06T07:34:23.586Z,79.00
2018-03-06T07:36:51.839Z,79.00
2018-03-06T07:39:21.124Z,78.40
2018-03-06T07:41:50.168Z,77.60
2018-03-06T07:44:18.538Z,77.50
2018-03-06T07:46:49.712Z,77.50
2018-03-06T07:49:17.967Z,77.40
2018-03-06T07:51:46.261Z,77.10
2018-03-06T07:54:14.705Z,77.90
2018-03-06T07:56:43.008Z,77.20
2018-03-06T07:59:12.345Z,76.20
2018-03-06T08:01:41.166Z,76.00
2018-03-06T08:04:10.203Z,75.30
2018-03-06T08:06:38.470Z,75.40
2018-03-06T08:09:06.993Z,75.70
2018-03-06T08:11:38.010Z,75.50
2018-03-06T08:14:06.357Z,75.40
2018-03-06T08:16:34.791Z,75.90
2018-03-06T08:19:03.056Z,77.10
2018-03-06T08:21:31.335Z,75.80
2018-03-06T08:24:03.126Z,75.90
2018-03-06T08:26:32.166Z,74.90
2018-03-06T08:29:00.434Z,74.90
2018-03-06T08:31:29.843Z,75.60
2018-03-06T08:33:58.119Z,73.80
2018-03-06T08:36:27.455Z,74.10
2018-03-06T08:38:56.755Z,75.40
2018-03-06T08:41:25.042Z,75.30
2018-03-06T08:43:54.206Z,74.40
2018-03-06T08:46:24.007Z,74.40
2018-03-06T08:48:53.081Z,74.40
2018-03-06T08:51:21.338Z,73.40
2018-03-06T08:53:50.820Z,73.30
2018-03-06T08:56:19.106Z,73.70
2018-03-06T08:58:48.152Z,72.20
2018-03-06T09:01:17.757Z,72.10
2018-03-06T09:03:46.164Z,71.10
2018-03-06T09:06:14.572Z,71.20
2018-03-06T09:08:43.983Z,69.00
2018-03-06T09:11:12.255Z,69.10
2018-03-06T09:13:42.740Z,63.00
2018-03-06T09:16:11.248Z,62.90
2018-03-06T09:18:39.514Z,62.60
2018-03-06T09:21:07.810Z,64.50
2018-03-06T09:23:37.073Z,65.30
2018-03-06T09:26:06.150Z,65.10
2018-03-06T09:28:34.519Z,65.10
2018-03-06T09:31:02.822Z,62.90
2018-03-06T09:33:31.111Z,61.80
2018-03-06T09:35:59.381Z,63.00
2018-03-06T09:38:28.201Z,61.70
2018-03-06T09:40:57.245Z,60.00
2018-03-06T09:43:25.503Z,60.00
2018-03-06T09:45:53.909Z,61.60
2018-03-06T09:48:22.165Z,62.70
2018-03-06T09:50:52.146Z,62.80
2018-03-06T09:53:20.673Z,63.10
2018-03-06T09:55:48.954Z,63.20
2018-03-06T09:58:17.328Z,59.90
2018-03-06T10:00:45.726Z,60.00
2018-03-06T10:03:16.479Z,59.80
2018-03-06T10:05:44.737Z,57.90
2018-03-06T10:08:13.208Z,57.50
2018-03-06T10:10:41.477Z,56.90
2018-03-06T10:13:09.821Z,57.60
2018-03-06T10:15:40.434Z,57.70
2018-03-06T10:18:09.487Z,55.50
2018-03-06T10:20:37.790Z,56.00
2018-03-06T10:23:06.149Z,55.10
2018-03-06T10:25:34.419Z,55.50
2018-03-06T10:28:03.888Z,54.90
2018-03-06T10:30:33.009Z,54.70
2018-03-06T10:33:01.282Z,54.80
2018-03-06T10:35:29.572Z,54.50
2018-03-06T10:37:57.937Z,54.50
2018-03-06T10:40:27.746Z,54.00
2018-03-06T10:42:56.026Z,54.30
2018-03-06T10:45:24.341Z,52.70
2018-03-06T10:47:52.679Z,54.40
2018-03-06T10:50:20.973Z,53.40
2018-03-06T10:52:50.702Z,52.50
2018-03-06T10:55:19.789Z,54.60
2018-03-06T10:57:48.101Z,54.20
2018-03-06T11:00:16.652Z,54.70
2018-03-06T11:02:44.953Z,51.80
2018-03-06T11:05:15.777Z,54.90
2018-03-06T11:07:44.195Z,54.70
2018-03-06T11:10:13.310Z,55.50
2018-03-06T11:12:41.587Z,55.50
2018-03-06T11:15:10.285Z,55.70
2018-03-06T11:17:40.609Z,54.60
2018-03-06T11:20:08.913Z,56.10
2018-03-06T11:22:38.274Z,55.90
2018-03-06T11:25:06.556Z,55.90
2018-03-06T11:27:34.933Z,56.80
2018-03-06T11:30:04.867Z,55.50
2018-03-06T11:32:33.938Z,56.40
2018-03-06T11:35:02.227Z,56.40
2018-03-06T11:37:30.536Z,54.40
2018-03-06T11:39:59.576Z,53.90
2018-03-06T11:42:30.749Z,53.80
2018-03-06T11:44:59.313Z,51.90
2018-03-06T11:47:27.692Z,52.60
2018-03-06T11:49:55.966Z,53.40
2018-03-06T11:52:24.554Z,52.60
2018-03-06T11:54:52.901Z,53.50
2018-03-06T11:57:21.186Z,54.10
2018-03-06T11:59:50.150Z,54.00
2018-03-06T12:02:19.191Z,52.30
2018-03-06T12:04:47.502Z,52.20
2018-03-06T12:07:19.564Z,53.10
2018-03-06T12:09:48.649Z,52.30
2018-03-06T12:12:16.988Z,52.20
2018-03-06T12:14:46.310Z,51.20
2018-03-06T12:17:14.579Z,51.40
2018-03-06T12:19:43.705Z,52.50
2018-03-06T12:22:12.060Z,52.00
2018-03-06T12:24:40.378Z,51.20
2018-03-06T12:27:09.486Z,50.10
2018-03-06T12:29:38.114Z,50.10
2018-03-06T12:32:11.254Z,50.10
2018-03-06T12:34:40.539Z,50.30
2018-03-06T12:37:09.694Z,48.50
2018-03-06T12:39:37.979Z,48.50
2018-03-06T12:42:06.311Z,48.90
2018-03-06T12:44:35.360Z,49.10
2018-03-06T12:47:03.734Z,49.00
2018-03-06T12:49:33.171Z,48.80
2018-03-06T12:52:02.241Z,48.10
2018-03-06T12:54:30.533Z,48.10
2018-03-06T12:56:59.187Z,48.60
2018-03-06T12:59:27.464Z,47.00
2018-03-06T13:01:55.743Z,46.10
2018-03-06T13:04:24.059Z,47.10
2018-03-06T13:06:53.104Z,48.20
2018-03-06T13:09:24.836Z,48.10
2018-03-06T13:11:53.248Z,46.30
2018-03-06T13:14:21.627Z,46.60
2018-03-06T13:16:49.901Z,46.90
2018-03-06T13:19:18.229Z,47.40
2018-03-06T13:21:47.344Z,47.20
2018-03-06T13:24:15.626Z,47.10
2018-03-06T13:29:20.686Z,46.20
2018-03-06T13:31:49.944Z,46.10
2018-03-06T13:34:18.996Z,45.40
2018-03-06T13:36:47.282Z,45.40
2018-03-06T13:39:15.867Z,46.30
2018-03-06T13:41:44.238Z,46.80
2018-03-06T13:44:14.677Z,46.60
2018-03-06T13:46:44.020Z,45.30
2018-03-06T13:49:13.061Z,44.40
2018-03-06T13:51:42.257Z,44.40
2018-03-06T13:54:10.700Z,44.50
2018-03-06T13:56:41.272Z,44.40
2018-03-06T13:59:09.565Z,43.80
2018-03-06T14:01:37.872Z,43.70
2018-03-06T14:04:06.180Z,44.40
2018-03-06T14:06:34.464Z,45.10
2018-03-06T14:09:05.623Z,45.10
2018-03-06T14:11:34.175Z,44.60
2018-03-06T14:14:02.434Z,44.80
2018-03-06T14:16:30.745Z,44.00
2018-03-06T14:18:59.009Z,43.70
2018-03-06T14:21:28.220Z,44.70
2018-03-06T14:23:56.721Z,44.70
2018-03-06T14:26:24.986Z,45.50
2018-03-06T14:28:53.365Z,44.50
2018-03-06T14:31:21.667Z,46.30
2018-03-06T14:33:51.986Z,45.50
2018-03-06T14:36:20.343Z,45.00
2018-03-06T14:38:49.131Z,45.10
2018-03-06T14:41:19.004Z,45.50
2018-03-06T14:43:47.277Z,45.70
2018-03-06T14:46:16.723Z,45.10
2018-03-06T14:48:45.040Z,45.30
2018-03-06T14:51:14.102Z,46.20
2018-03-06T14:53:43.125Z,46.10
2018-03-06T14:56:12.169Z,46.20
2018-03-06T14:58:40.767Z,46.20
2018-03-06T15:01:09.251Z,46.70
2018-03-06T15:03:37.550Z,46.70
2018-03-06T15:06:05.816Z,46.40
2018-03-06T15:08:34.146Z,46.90
2018-03-06T15:11:03.170Z,47.20
2018-03-06T15:13:32.558Z,46.70
2018-03-06T15:16:01.177Z,47.70
2018-03-06T15:18:30.238Z,48.40
2018-03-06T15:20:58.555Z,48.40
2018-03-06T15:23:29.486Z,48.40
2018-03-06T15:25:57.847Z,48.80
2018-03-06T15:28:26.132Z,48.80
2018-03-06T15:30:54.422Z,48.80
2018-03-06T15:33:22.691Z,49.00
2018-03-06T15:35:51.786Z,49.20
2018-03-06T15:38:20.106Z,49.00
2018-03-06T15:40:48.427Z,49.20
2018-03-06T15:43:16.773Z,49.30
2018-03-06T15:45:45.150Z,49.30
2018-03-06T15:48:15.264Z,49.60
2018-03-06T15:50:44.405Z,49.80
2018-03-06T15:53:12.987Z,49.90
2018-03-06T15:55:41.318Z,50.30
2018-03-06T15:58:09.775Z,49.90
2018-03-06T16:00:40.429Z,49.80
2018-03-06T16:03:08.738Z,49.80
2018-03-06T16:05:37.051Z,50.00
2018-03-06T16:08:05.676Z,49.80
2018-03-06T16:10:33.997Z,50.30
2018-03-06T16:13:03.888Z,50.10
2018-03-06T16:15:32.357Z,50.20
2018-03-06T16:18:01.749Z,50.60
2018-03-06T16:20:30.137Z,50.80
2018-03-06T16:22:58.581Z,51.10
2018-03-06T16:25:29.962Z,52.00
2018-03-06T16:27:58.373Z,52.00
2018-03-06T16:30:26.835Z,51.20
2018-03-06T16:32:55.201Z,52.20
2018-03-06T16:35:23.521Z,52.30
2018-03-06T16:37:53.373Z,52.90
2018-03-06T16:40:22.455Z,52.70
2018-03-06T16:42:51.543Z,53.20
2018-03-06T16:45:20.869Z,52.90
2018-03-06T16:47:49.994Z,53.40
2018-03-06T16:50:22.997Z,52.90
2018-03-06T16:52:51.311Z,52.90
2018-03-06T16:55:19.608Z,53.30
2018-03-06T16:57:48.087Z,53.70
2018-03-06T17:00:16.390Z,53.80
2018-03-06T17:02:45.234Z,54.60
2018-03-06T17:05:14.333Z,55.90
2018-03-06T17:07:43.405Z,56.10
2018-03-06T17:10:11.726Z,56.10
2018-03-06T17:12:40.363Z,56.30
2018-03-06T17:15:10.964Z,56.40
2018-03-06T17:17:39.620Z,56.60
2018-03-06T17:20:08.563Z,57.30
2018-03-06T17:22:36.868Z,57.20
2018-03-06T17:25:05.197Z,57.70
2018-03-06T17:27:36.124Z,57.70
2018-03-06T17:30:04.531Z,58.60
2018-03-06T17:32:32.908Z,58.60
2018-03-06T17:35:01.496Z,59.10
2018-03-06T17:37:29.790Z,59.50
2018-03-06T17:39:59.629Z,59.50
2018-03-06T17:42:28.753Z,59.30
2018-03-06T17:44:57.157Z,59.30
2018-03-06T17:47:25.612Z,59.60
2018-03-06T17:49:53.981Z,59.70
2018-03-06T17:52:24.649Z,59.70
2018-03-06T17:54:53.788Z,61.10
2018-03-06T17:57:23.560Z,61.00
2018-03-06T17:59:53.120Z,61.00
2018-03-06T18:02:22.395Z,61.60
2018-03-06T18:04:51.772Z,61.90
2018-03-06T18:07:20.101Z,61.80
2018-03-06T18:09:48.750Z,62.50
2018-03-06T18:12:17.155Z,62.00
2018-03-06T18:14:45.516Z,62.30
2018-03-06T18:17:15.295Z,62.60
2018-03-06T18:19:44.282Z,63.10
2018-03-06T18:22:12.600Z,63.40
2018-03-06T18:24:41.740Z,63.70
2018-03-06T18:27:10.402Z,63.70
2018-03-06T18:29:38.757Z,64.60
2018-03-06T18:32:08.028Z,64.20
2018-03-06T18:34:37.061Z,64.20
2018-03-06T18:37:06.146Z,64.10
2018-03-06T18:39:35.966Z,63.90
2018-03-06T18:42:18.086Z,64.20
2018-03-06T18:44:46.423Z,64.20
2018-03-06T18:47:14.741Z,64.70
2018-03-06T18:49:56.332Z,64.80
2018-03-06T18:52:24.873Z,64.70
2018-03-06T18:54:53.256Z,64.90
2018-03-06T18:57:21.805Z,65.20
2018-03-06T19:03:23.819Z,65.60
2018-03-06T19:06:03.906Z,66.10
2018-03-06T19:08:32.572Z,66.20
2018-03-06T19:11:01.673Z,65.90
2018-03-06T19:13:30.918Z,65.90
2018-03-06T19:15:59.284Z,65.90
2018-03-06T19:18:27.712Z,66.30
2018-03-06T19:20:56.908Z,66.70
2018-03-06T19:23:26.219Z,66.50
2018-03-06T19:25:54.823Z,66.80
2018-03-06T19:28:23.179Z,67.20
2018-03-06T19:30:51.780Z,67.60
2018-03-06T19:33:20.856Z,68.20
2018-03-06T19:35:49.157Z,68.10
2018-03-06T19:38:18.459Z,68.30
2018-03-06T19:40:47.542Z,68.20
2018-03-06T19:43:16.651Z,68.10
2018-03-06T19:45:45.147Z,68.10
2018-03-06T19:48:13.427Z,68.00
2018-03-06T19:50:43.331Z,67.80
2018-03-06T19:53:11.791Z,68.00
2018-03-06T19:55:40.871Z,68.10
2018-03-06T19:58:09.719Z,68.00
2018-03-06T20:00:38.314Z,68.40
2018-03-06T20:03:07.068Z,67.70
2018-03-06T20:05:35.469Z,67.80
2018-03-06T20:08:04.082Z,67.70
2018-03-06T20:10:32.366Z,67.50
2018-03-06T20:13:00.629Z,67.90
2018-03-06T20:15:29.693Z,67.70
2018-03-06T20:17:58.003Z,67.70
2018-03-06T20:20:26.280Z,68.30
2018-03-06T20:22:56.788Z,68.40
2018-03-06T20:25:30.790Z,68.50
2018-03-06T20:27:59.805Z,68.90
2018-03-06T20:30:33.916Z,68.90
2018-03-06T20:33:08.259Z,69.00
2018-03-06T20:35:37.253Z,69.30
2018-03-06T20:38:15.359Z,70.00
2018-03-06T20:40:43.676Z,69.80
2018-03-06T20:43:11.966Z,70.50
2018-03-06T20:45:46.023Z,71.00
2018-03-06T20:48:14.372Z,71.30
2018-03-06T20:50:42.666Z,71.50
2018-03-06T20:53:16.863Z,71.40
2018-03-06T20:55:45.163Z,71.60
2018-03-06T20:58:13.469Z,71.80
2018-03-06T21:00:45.207Z,72.00
2018-03-06T21:03:13.485Z,72.00
2018-03-06T21:05:41.742Z,72.10
2018-03-06T21:08:10.104Z,72.00
2018-03-06T21:10:38.406Z,71.80
2018-03-06T21:13:06.759Z,71.80
2018-03-06T21:15:35.278Z,71.60
2018-03-06T21:18:04.352Z,71.70
2018-03-06T21:20:32.628Z,71.70
2018-03-06T21:23:04.049Z,72.10
2018-03-06T21:25:33.118Z,72.60
2018-03-06T21:28:01.396Z,72.40
2018-03-06T21:30:29.684Z,72.30
2018-03-06T21:32:57.953Z,72.20
2018-03-06T21:35:26.238Z,71.70
2018-03-06T21:37:55.822Z,71.90
2018-03-06T21:40:24.092Z,72.40
2018-03-06T21:42:53.159Z,72.40
2018-03-06T21:45:22.218Z,72.50
2018-03-06T21:47:50.480Z,72.50
2018-03-06T21:50:20.238Z,72.80
2018-03-06T21:52:48.721Z,73.00
2018-03-06T21:55:18.576Z,73.20
2018-03-06T21:57:46.862Z,73.00
2018-03-06T22:00:15.166Z,73.50
2018-03-06T22:02:46.517Z,73.90
2018-03-06T22:05:14.784Z,74.20
2018-03-06T22:07:43.494Z,74.40
2018-03-06T22:10:13.265Z,74.00
2018-03-06T22:12:41.539Z,74.00
2018-03-06T22:15:13.434Z,73.90
2018-03-06T22:17:41.705Z,74.30
2018-03-06T22:20:09.957Z,74.50
2018-03-06T22:22:38.467Z,74.60
2018-03-06T22:25:06.817Z,74.30
2018-03-06T22:27:35.082Z,74.30
2018-03-06T22:30:03.939Z,74.40
2018-03-06T22:32:32.986Z,74.10
2018-03-06T22:35:01.255Z,74.60
2018-03-06T22:37:29.794Z,74.60
2018-03-06T22:39:59.333Z,75.30
2018-03-06T22:42:27.739Z,74.60
2018-03-06T22:44:56.587Z,75.30
2018-03-06T22:47:25.629Z,74.70
2018-03-06T22:49:53.938Z,74.60
2018-03-06T22:52:25.637Z,74.40
2018-03-06T22:54:53.911Z,74.30
2018-03-06T22:57:22.174Z,73.90
2018-03-06T22:59:50.512Z,74.40
2018-03-06T23:02:18.808Z,74.70
2018-03-06T23:04:48.172Z,75.20
2018-03-06T23:07:16.662Z,75.10
2018-03-06T23:09:46.422Z,75.30
2018-03-06T23:12:14.697Z,75.30
2018-03-06T23:14:43.155Z,75.60
2018-03-06T23:17:14.753Z,75.50
2018-03-06T23:19:43.110Z,75.50
2018-03-06T23:22:11.443Z,75.30
2018-03-06T23:24:40.532Z,75.00
2018-03-06T23:27:09.366Z,75.00
2018-03-06T23:29:38.490Z,74.90
2018-03-06T23:32:06.888Z,74.80
2018-03-06T23:34:35.147Z,75.00
2018-03-06T23:37:03.861Z,75.10
2018-03-06T23:39:32.153Z,74.80
2018-03-06T23:42:01.957Z,75.20
2018-03-06T23:44:31.792Z,75.80
2018-03-06T23:47:00.823Z,75.70
2018-03-06T23:49:29.090Z,75.60
2018-03-06T23:51:57.406Z,75.80
2018-03-06T23:54:28.968Z,76.10
2018-03-06T23:56:57.246Z,75.70
2018-03-06T23:59:25.723Z,75.80
